createdAt,value
2018-12-24T00:01:23.953Z,2.83
2018-12-24T00:03:54.381Z,2.60
2018-12-24T00:06:24.789Z,4.20
2018-12-24T00:08:55.145Z,3.30
2018-12-24T00:11:25.449Z,3.87
2018-12-24T00:13:55.713Z,6.33
2018-12-24T00:16:26.082Z,3.63
2018-12-24T00:18:56.337Z,8.40
2018-12-24T00:21:26.625Z,8.20
2018-12-24T00:23:56.933Z,6.37
2018-12-24T00:26:27.249Z,6.63
2018-12-24T00:28:57.611Z,7.23
2018-12-24T00:31:27.925Z,5.80
2018-12-24T00:33:58.289Z,5.97
2018-12-24T00:36:28.953Z,7.40
2018-12-24T00:38:59.263Z,6.73
2018-12-24T00:41:41.655Z,4.83
2018-12-24T00:44:12.335Z,4.30
2018-12-24T00:46:42.729Z,5.43
2018-12-24T00:49:13.034Z,3.43
2018-12-24T00:51:43.431Z,3.50
2018-12-24T00:54:13.721Z,3.50
2018-12-24T00:56:44.218Z,4.27
2018-12-24T00:59:14.692Z,4.40
2018-12-24T01:01:45.586Z,4.90
2018-12-24T01:04:15.946Z,3.60
2018-12-24T01:06:46.267Z,5.03
2018-12-24T01:09:16.560Z,4.03
2018-12-24T01:11:46.865Z,3.60
2018-12-24T01:14:17.164Z,2.60
2018-12-24T01:16:47.809Z,3.40
2018-12-24T01:19:18.466Z,2.83
2018-12-24T01:21:48.733Z,2.90
2018-12-24T01:24:19.042Z,3.67
2018-12-24T01:26:49.370Z,3.43
2018-12-24T01:29:19.757Z,5.17
2018-12-24T01:31:51.458Z,2.93
2018-12-24T01:34:21.857Z,2.60
2018-12-24T01:36:52.237Z,5.07
2018-12-24T01:39:22.597Z,3.37
2018-12-24T01:41:53.398Z,4.97
2018-12-24T01:44:23.723Z,3.60
2018-12-24T01:46:53.993Z,2.80
2018-12-24T01:49:24.340Z,6.00
2018-12-24T01:51:54.704Z,4.33
2018-12-24T01:54:24.994Z,4.23
2018-12-24T01:56:55.356Z,3.90
2018-12-24T01:59:25.751Z,4.10
2018-12-24T02:01:56.097Z,3.50
2018-12-24T02:04:26.591Z,5.07
2018-12-24T02:06:57.085Z,4.57
2018-12-24T02:09:27.372Z,4.60
2018-12-24T02:11:57.644Z,4.30
2018-12-24T02:14:27.973Z,5.43
2018-12-24T02:16:58.238Z,6.17
2018-12-24T02:19:28.872Z,5.63
2018-12-24T02:21:59.136Z,7.10
2018-12-24T02:24:30.341Z,9.37
2018-12-24T02:27:00.961Z,9.47
2018-12-24T02:29:31.585Z,8.53
2018-12-24T02:32:01.866Z,9.57
2018-12-24T02:34:32.204Z,11.27
2018-12-24T02:37:02.662Z,11.10
2018-12-24T02:39:33.108Z,11.93
2018-12-24T02:42:03.623Z,12.33
2018-12-24T02:44:33.941Z,14.77
2018-12-24T02:47:04.910Z,14.63
2018-12-24T02:49:35.780Z,17.23
2018-12-24T02:52:07.185Z,24.00
2018-12-24T02:54:37.662Z,16.60
2018-12-24T02:57:07.988Z,15.13
2018-12-24T02:59:38.358Z,16.53
2018-12-24T03:02:08.759Z,15.50
2018-12-24T03:04:39.529Z,19.43
2018-12-24T03:07:09.388Z,17.50
2018-12-24T03:09:39.700Z,14.87
2018-12-24T03:12:09.985Z,15.37
2018-12-24T03:14:40.354Z,16.67
2018-12-24T03:17:10.685Z,17.20
2018-12-24T03:19:41.391Z,15.30
2018-12-24T03:22:11.683Z,15.23
2018-12-24T03:24:41.975Z,13.47
2018-12-24T03:27:12.363Z,15.80
2018-12-24T03:29:42.659Z,14.37
2018-12-24T03:32:14.457Z,13.67
2018-12-24T03:34:44.324Z,14.30
2018-12-24T03:37:14.078Z,16.87
2018-12-24T03:39:44.289Z,15.10
2018-12-24T03:42:14.586Z,16.93
2018-12-24T03:44:44.888Z,17.20
2018-12-24T03:47:15.602Z,17.70
2018-12-24T03:49:45.909Z,17.43
2018-12-24T03:52:16.185Z,17.23
2018-12-24T03:54:46.782Z,17.10
2018-12-24T03:57:17.056Z,20.50
2018-12-24T03:59:47.346Z,20.40
2018-12-24T04:02:17.616Z,21.13
2018-12-24T04:04:48.071Z,12.67
2018-12-24T04:07:18.360Z,14.43
2018-12-24T04:09:49.515Z,13.27
2018-12-24T04:12:19.901Z,11.70
2018-12-24T04:14:50.262Z,22.53
2018-12-24T04:17:20.521Z,24.63
2018-12-24T04:19:50.920Z,17.30
2018-12-24T04:22:22.020Z,19.70
2018-12-24T04:24:52.417Z,21.60
2018-12-24T04:27:22.677Z,18.03
2018-12-24T04:29:53.048Z,16.10
2018-12-24T04:32:23.430Z,16.60
2018-12-24T04:34:53.739Z,16.90
2018-12-24T04:37:24.096Z,18.83
2018-12-24T04:39:54.393Z,18.17
2018-12-24T04:42:24.777Z,18.53
2018-12-24T04:44:55.755Z,17.60
2018-12-24T04:47:26.051Z,17.83
2018-12-24T04:49:56.410Z,20.10
2018-12-24T04:52:27.074Z,17.47
2018-12-24T04:54:57.439Z,18.17
2018-12-24T04:57:28.112Z,16.40
2018-12-24T04:59:58.992Z,18.70
2018-12-24T05:02:29.689Z,17.67
2018-12-24T05:05:00.183Z,16.00
2018-12-24T05:07:30.449Z,16.37
2018-12-24T05:10:00.786Z,15.37
2018-12-24T05:12:31.187Z,17.33
2018-12-24T05:15:01.557Z,19.20
2018-12-24T05:17:31.852Z,17.03
2018-12-24T05:20:02.315Z,20.83
2018-12-24T05:22:32.577Z,14.70
2018-12-24T05:25:02.957Z,16.73
2018-12-24T05:27:33.362Z,16.07
2018-12-24T05:30:03.763Z,15.80
2018-12-24T05:32:34.146Z,15.70
2018-12-24T05:35:04.470Z,19.53
2018-12-24T05:37:34.851Z,15.57
2018-12-24T05:40:06.421Z,15.60
2018-12-24T05:42:36.829Z,16.83
2018-12-24T05:45:07.214Z,13.97
2018-12-24T05:47:37.990Z,18.97
2018-12-24T05:50:08.363Z,13.00
2018-12-24T05:52:38.625Z,16.03
2018-12-24T05:55:08.918Z,17.20
2018-12-24T05:57:39.203Z,13.90
2018-12-24T06:00:09.578Z,16.27
2018-12-24T06:02:40.221Z,12.93
2018-12-24T06:05:10.890Z,16.53
2018-12-24T06:07:41.182Z,15.20
2018-12-24T06:10:11.580Z,15.70
2018-12-24T06:12:42.841Z,16.20
2018-12-24T06:15:13.144Z,15.13
2018-12-24T06:17:43.835Z,11.73
2018-12-24T06:20:14.241Z,9.70
2018-12-24T06:22:45.529Z,7.20
2018-12-24T06:25:16.033Z,7.17
2018-12-24T06:27:46.412Z,10.50
2018-12-24T06:30:16.684Z,7.67
2018-12-24T06:32:48.326Z,7.20
2018-12-24T06:35:18.670Z,7.43
2018-12-24T06:37:48.943Z,6.70
2018-12-24T06:40:19.231Z,8.17
2018-12-24T06:42:49.833Z,8.00
2018-12-24T06:45:20.693Z,8.50
2018-12-24T06:47:50.977Z,7.20
2018-12-24T06:50:21.366Z,10.70
2018-12-24T06:53:02.132Z,9.03
2018-12-24T06:55:36.438Z,6.93
2018-12-24T06:58:14.645Z,6.90
2018-12-24T07:00:45.102Z,12.13
2018-12-24T07:03:16.841Z,8.97
2018-12-24T07:05:47.362Z,8.73
2018-12-24T07:08:18.197Z,8.63
2018-12-24T07:10:48.831Z,8.40
2018-12-24T07:13:22.937Z,8.00
2018-12-24T07:15:54.123Z,8.77
2018-12-24T07:18:25.269Z,7.90
2018-12-24T07:20:56.120Z,9.90
2018-12-24T07:23:28.253Z,8.17
2018-12-24T07:25:59.639Z,11.17
2018-12-24T07:28:30.013Z,12.50
2018-12-24T07:31:00.401Z,13.57
2018-12-24T07:33:30.823Z,14.63
2018-12-24T07:36:01.207Z,15.90
2018-12-24T07:38:32.031Z,17.73
2018-12-24T07:41:02.421Z,16.80
2018-12-24T07:43:32.821Z,16.70
2018-12-24T07:46:03.235Z,18.90
2018-12-24T07:48:33.705Z,15.07
2018-12-24T07:51:04.158Z,15.00
2018-12-24T07:53:35.345Z,13.17
2018-12-24T07:56:05.927Z,17.40
2018-12-24T07:58:39.573Z,16.17
2018-12-24T08:01:11.766Z,13.60
2018-12-24T08:03:42.130Z,13.97
2018-12-24T08:06:12.576Z,15.43
2018-12-24T08:08:42.842Z,12.23
2018-12-24T08:11:13.554Z,11.87
2018-12-24T08:13:44.026Z,11.63
2018-12-24T08:16:14.914Z,12.87
2018-12-24T08:18:45.426Z,11.80
2018-12-24T08:21:16.045Z,12.03
2018-12-24T08:23:46.588Z,11.90
2018-12-24T08:26:16.906Z,10.90
2018-12-24T08:28:47.669Z,9.27
2018-12-24T08:31:18.056Z,9.33
2018-12-24T08:33:48.405Z,10.37
2018-12-24T08:36:19.371Z,11.93
2018-12-24T08:38:50.072Z,12.30
2018-12-24T08:41:21.827Z,9.50
2018-12-24T08:43:52.473Z,9.80
2018-12-24T08:46:22.780Z,11.00
2018-12-24T08:48:53.166Z,8.70
2018-12-24T08:51:23.561Z,10.27
2018-12-24T08:53:54.349Z,10.03
2018-12-24T08:56:24.658Z,10.73
2018-12-24T08:58:54.938Z,11.10
2018-12-24T09:01:25.313Z,8.83
2018-12-24T09:03:55.627Z,8.37
2018-12-24T09:06:25.948Z,8.97
2018-12-24T09:08:56.252Z,9.73
2018-12-24T09:11:26.938Z,8.80
2018-12-24T09:13:58.062Z,11.73
2018-12-24T09:16:28.379Z,8.83
2018-12-24T09:18:59.083Z,7.90
2018-12-24T09:21:29.538Z,9.67
2018-12-24T09:23:59.825Z,10.70
2018-12-24T09:26:31.250Z,8.60
2018-12-24T09:29:01.604Z,9.00
2018-12-24T09:31:33.001Z,7.90
2018-12-24T09:34:37.123Z,14.83
2018-12-24T09:37:06.982Z,9.00
2018-12-24T09:39:36.862Z,9.33
2018-12-24T09:42:06.853Z,8.30
2018-12-24T09:44:37.701Z,8.37
2018-12-24T09:47:07.600Z,9.73
2018-12-24T09:49:37.452Z,7.93
2018-12-24T09:52:07.429Z,8.63
2018-12-24T09:54:37.410Z,8.60
2018-12-24T09:57:07.327Z,9.47
2018-12-24T09:59:37.242Z,7.63
2018-12-24T10:02:07.174Z,7.33
2018-12-24T10:04:46.400Z,8.10
2018-12-24T10:07:44.391Z,6.00
2018-12-24T10:10:17.095Z,6.53
2018-12-24T10:12:47.343Z,6.17
2018-12-24T10:15:17.273Z,7.07
2018-12-24T10:17:47.213Z,8.00
2018-12-24T10:20:17.205Z,6.17
2018-12-24T10:22:47.138Z,7.03
2018-12-24T10:25:16.999Z,8.60
2018-12-24T10:27:46.861Z,10.73
2018-12-24T10:30:17.679Z,9.03
2018-12-24T10:32:47.794Z,8.97
2018-12-24T10:35:17.707Z,6.57
2018-12-24T10:37:48.681Z,8.10
2018-12-24T10:40:19.183Z,7.17
2018-12-24T10:42:49.269Z,7.10
2018-12-24T10:45:19.113Z,10.30
2018-12-24T10:47:50.246Z,5.67
2018-12-24T10:50:20.088Z,7.87
2018-12-24T10:52:50.152Z,6.37
2018-12-24T10:55:20.647Z,9.07
2018-12-24T10:57:52.790Z,10.80
2018-12-24T11:00:22.773Z,10.20
2018-12-24T11:02:52.832Z,8.50
2018-12-24T11:05:22.994Z,13.27
2018-12-24T11:07:52.947Z,6.80
2018-12-24T11:10:22.980Z,9.80
2018-12-24T11:12:52.894Z,10.40
2018-12-24T11:15:25.241Z,7.60
2018-12-24T11:17:54.871Z,7.17
2018-12-24T11:20:24.714Z,9.30
2018-12-24T11:22:54.618Z,8.23
2018-12-24T11:25:24.456Z,8.80
2018-12-24T11:27:55.173Z,9.50
2018-12-24T11:30:25.026Z,10.20
2018-12-24T11:32:54.961Z,9.83
2018-12-24T11:35:26.583Z,7.80
2018-12-24T11:37:57.404Z,7.83
2018-12-24T11:40:27.862Z,8.20
2018-12-24T11:42:57.716Z,7.37
2018-12-24T11:45:33.714Z,8.43
2018-12-24T11:47:59.521Z,7.00
2018-12-24T11:50:29.744Z,7.13
2018-12-24T11:53:00.149Z,7.03
2018-12-24T11:55:30.002Z,11.07
2018-12-24T11:57:59.969Z,6.80
2018-12-24T12:00:30.139Z,7.40
2018-12-24T12:03:00.157Z,8.40
2018-12-24T12:05:30.679Z,7.83
2018-12-24T12:08:00.528Z,8.27
2018-12-24T12:10:30.398Z,7.30
2018-12-24T12:13:00.235Z,9.13
2018-12-24T12:15:30.112Z,7.67
2018-12-24T12:18:00.029Z,8.27
2018-12-24T12:20:30.520Z,7.37
2018-12-24T12:23:00.729Z,7.27
2018-12-24T12:25:30.715Z,6.33
2018-12-24T12:28:00.581Z,7.47
2018-12-24T12:30:30.433Z,6.67
2018-12-24T12:33:00.568Z,9.03
2018-12-24T12:35:30.465Z,8.20
2018-12-24T12:38:00.308Z,8.20
2018-12-24T12:40:30.182Z,11.67
2018-12-24T12:43:00.130Z,9.27
2018-12-24T12:45:30.137Z,7.60
2018-12-24T12:48:00.080Z,7.70
2018-12-24T12:50:30.020Z,7.87
2018-12-24T12:53:00.181Z,7.63
2018-12-24T12:55:30.087Z,7.47
2018-12-24T12:58:00.009Z,8.33
2018-12-24T13:00:29.888Z,8.23
2018-12-24T13:02:59.747Z,8.30
2018-12-24T13:05:29.593Z,7.00
2018-12-24T13:07:59.424Z,6.17
2018-12-24T13:10:29.540Z,6.60
2018-12-24T13:12:59.792Z,8.30
2018-12-24T13:15:29.640Z,15.83
2018-12-24T13:17:59.611Z,6.03
2018-12-24T13:20:29.529Z,7.20
2018-12-24T13:22:59.453Z,6.90
2018-12-24T13:25:29.485Z,7.77
2018-12-24T13:27:59.352Z,7.70
2018-12-24T13:30:29.322Z,6.90
2018-12-24T13:32:59.517Z,5.77
2018-12-24T13:35:29.528Z,7.17
2018-12-24T13:37:59.503Z,9.17
2018-12-24T13:40:29.482Z,6.00
2018-12-24T13:42:59.636Z,6.97
2018-12-24T13:45:29.493Z,6.90
2018-12-24T13:47:59.624Z,5.83
2018-12-24T13:50:29.494Z,6.40
2018-12-24T13:52:59.396Z,10.30
2018-12-24T13:55:29.234Z,10.00
2018-12-24T13:57:59.326Z,6.23
2018-12-24T14:00:29.663Z,8.90
2018-12-24T14:02:59.599Z,8.73
2018-12-24T14:05:30.120Z,7.70
2018-12-24T14:07:59.973Z,7.77
2018-12-24T14:10:29.826Z,7.70
2018-12-24T14:12:59.776Z,13.33
2018-12-24T14:15:29.614Z,12.43
2018-12-24T14:18:00.175Z,7.33
2018-12-24T14:20:30.014Z,7.33
2018-12-24T14:22:59.893Z,13.93
2018-12-24T14:25:29.742Z,8.07
2018-12-24T14:28:02.035Z,6.83
2018-12-24T14:30:32.096Z,6.63
2018-12-24T14:33:02.042Z,6.47
2018-12-24T14:35:32.869Z,6.70
2018-12-24T14:38:02.763Z,6.80
2018-12-24T14:40:32.877Z,7.50
2018-12-24T14:43:02.831Z,6.13
2018-12-24T14:45:32.665Z,12.97
2018-12-24T14:48:02.881Z,10.80
2018-12-24T14:50:33.113Z,6.90
2018-12-24T14:53:03.138Z,7.30
2018-12-24T14:55:33.101Z,11.33
2018-12-24T14:58:03.181Z,7.10
2018-12-24T15:00:33.401Z,7.93
2018-12-24T15:03:03.659Z,11.57
2018-12-24T15:05:33.568Z,9.80
2018-12-24T15:08:03.877Z,8.50
2018-12-24T15:10:33.715Z,10.00
2018-12-24T15:13:03.932Z,9.43
2018-12-24T15:15:33.817Z,10.17
2018-12-24T15:18:03.711Z,10.23
2018-12-24T15:20:33.533Z,10.23
2018-12-24T15:23:03.492Z,9.87
2018-12-24T15:25:33.789Z,9.33
2018-12-24T15:28:04.064Z,10.30
2018-12-24T15:30:34.640Z,11.00
2018-12-24T15:33:04.577Z,10.70
2018-12-24T15:35:34.697Z,12.13
2018-12-24T15:38:04.639Z,9.30
2018-12-24T15:40:34.567Z,10.70
2018-12-24T15:43:04.638Z,12.00
2018-12-24T15:45:34.524Z,9.33
2018-12-24T15:48:04.392Z,13.90
2018-12-24T15:50:34.985Z,12.93
2018-12-24T15:53:05.261Z,13.73
2018-12-24T15:55:35.256Z,10.30
2018-12-24T15:58:05.152Z,11.43
2018-12-24T16:00:35.559Z,10.20
2018-12-24T16:03:05.908Z,11.70
2018-12-24T16:05:35.784Z,8.73
2018-12-24T16:08:05.701Z,13.30
2018-12-24T16:10:36.180Z,14.97
2018-12-24T16:13:06.039Z,10.77
2018-12-24T16:15:35.973Z,12.40
2018-12-24T16:18:05.816Z,11.10
2018-12-24T16:20:35.754Z,12.03
2018-12-24T16:23:06.070Z,11.87
2018-12-24T16:25:35.951Z,11.67
2018-12-24T16:28:05.860Z,11.50
2018-12-24T16:30:35.828Z,12.53
2018-12-24T16:33:05.789Z,11.60
2018-12-24T16:35:35.665Z,8.40
2018-12-24T16:38:05.880Z,10.23
2018-12-24T16:40:36.073Z,10.33
2018-12-24T16:43:06.042Z,9.73
2018-12-24T16:45:36.386Z,10.87
2018-12-24T16:48:06.858Z,12.20
2018-12-24T16:50:36.715Z,10.13
2018-12-24T16:53:06.589Z,8.87
2018-12-24T16:55:36.633Z,12.03
2018-12-24T16:58:06.647Z,8.47
2018-12-24T17:00:36.870Z,8.80
2018-12-24T17:03:07.209Z,9.20
2018-12-24T17:05:37.095Z,11.10
2018-12-24T17:08:07.017Z,11.13
2018-12-24T17:10:37.631Z,10.17
2018-12-24T17:13:07.467Z,12.33
2018-12-24T17:15:37.372Z,12.00
2018-12-24T17:18:07.213Z,12.80
2018-12-24T17:20:37.214Z,11.63
2018-12-24T17:23:07.192Z,10.77
2018-12-24T17:25:37.154Z,11.90
2018-12-24T17:28:07.024Z,10.90
2018-12-24T17:30:37.376Z,11.70
2018-12-24T17:33:07.225Z,10.95
2018-12-24T17:35:37.508Z,9.50
2018-12-24T17:38:07.425Z,9.63
2018-12-24T17:40:37.593Z,10.80
2018-12-24T17:43:08.446Z,8.57
2018-12-24T17:45:38.375Z,13.10
2018-12-24T17:48:14.415Z,10.83
2018-12-24T17:50:44.296Z,11.70
2018-12-24T17:53:14.146Z,14.10
2018-12-24T17:55:44.714Z,13.43
2018-12-24T17:58:14.576Z,15.13
2018-12-24T18:00:44.654Z,13.73
2018-12-24T18:03:14.524Z,10.70
2018-12-24T18:05:44.375Z,18.90
2018-12-24T18:08:14.301Z,13.57
2018-12-24T18:10:44.237Z,13.43
2018-12-24T18:13:14.150Z,16.87
2018-12-24T18:15:47.047Z,13.43
2018-12-24T18:18:16.978Z,15.87
2018-12-24T18:20:46.929Z,17.17
2018-12-24T18:23:16.768Z,15.63
2018-12-24T18:25:46.647Z,13.33
2018-12-24T18:28:16.652Z,19.10
2018-12-24T18:30:46.561Z,17.00
2018-12-24T18:33:16.750Z,14.40
2018-12-24T18:35:46.614Z,16.30
2018-12-24T18:38:16.840Z,14.03
2018-12-24T18:40:47.056Z,14.00
2018-12-24T18:43:16.920Z,13.53
2018-12-24T18:45:46.801Z,16.83
2018-12-24T18:48:16.749Z,21.30
2018-12-24T18:50:47.053Z,13.83
2018-12-24T18:53:17.587Z,16.27
2018-12-24T18:55:47.503Z,14.87
2018-12-24T18:58:17.530Z,19.10
2018-12-24T19:00:47.405Z,19.07
2018-12-24T19:03:17.624Z,20.73
2018-12-24T19:05:47.672Z,25.30
2018-12-24T19:08:17.708Z,23.17
2018-12-24T19:10:47.572Z,20.00
2018-12-24T19:13:17.438Z,19.17
2018-12-24T19:15:47.652Z,18.67
2018-12-24T19:18:17.528Z,21.47
2018-12-24T19:20:48.725Z,17.53
2018-12-24T19:23:18.698Z,18.67
2018-12-24T19:25:48.703Z,20.40
2018-12-24T19:28:19.391Z,18.70
2018-12-24T19:30:49.253Z,18.93
2018-12-24T19:33:19.482Z,17.23
2018-12-24T19:35:49.396Z,18.70
2018-12-24T19:38:19.693Z,16.60
2018-12-24T19:40:49.643Z,25.37
2018-12-24T19:43:19.545Z,16.97
2018-12-24T19:45:49.381Z,19.07
2018-12-24T19:48:19.253Z,16.60
2018-12-24T19:50:49.182Z,18.00
2018-12-24T19:53:19.056Z,18.30
2018-12-24T19:55:48.998Z,19.50
2018-12-24T19:58:18.945Z,18.80
2018-12-24T20:00:49.067Z,20.20
2018-12-24T20:03:19.444Z,21.47
2018-12-24T20:05:49.278Z,20.40
2018-12-24T20:08:19.364Z,20.87
2018-12-24T20:10:49.999Z,15.03
2018-12-24T20:13:24.006Z,15.27
2018-12-24T20:15:54.767Z,16.30
2018-12-24T20:18:24.692Z,15.70
2018-12-24T20:20:56.049Z,16.93
2018-12-24T20:23:32.399Z,16.83
2018-12-24T20:26:02.653Z,21.43
2018-12-24T20:28:32.714Z,17.27
2018-12-24T20:31:04.629Z,17.43
2018-12-24T20:33:34.584Z,17.63
2018-12-24T20:36:05.312Z,15.83
2018-12-24T20:38:37.124Z,17.60
2018-12-24T20:41:07.313Z,13.83
2018-12-24T20:43:37.216Z,16.20
2018-12-24T20:46:07.089Z,15.97
2018-12-24T20:48:39.384Z,19.40
2018-12-24T20:51:16.113Z,28.33
2018-12-24T20:53:40.835Z,17.70
2018-12-24T20:56:14.363Z,17.57
2018-12-24T20:58:44.385Z,17.90
2018-12-24T21:01:14.350Z,19.27
2018-12-24T21:03:44.223Z,15.70
2018-12-24T21:06:14.411Z,15.27
2018-12-24T21:08:44.289Z,21.40
2018-12-24T21:11:14.136Z,19.47
2018-12-24T21:13:44.864Z,21.13
2018-12-24T21:16:14.835Z,18.53
2018-12-24T21:18:44.766Z,18.43
2018-12-24T21:21:14.693Z,18.10
2018-12-24T21:23:44.956Z,19.70
2018-12-24T21:26:15.193Z,20.13
2018-12-24T21:28:45.204Z,18.90
2018-12-24T21:31:15.057Z,20.90
2018-12-24T21:33:44.913Z,16.63
2018-12-24T21:36:15.144Z,18.20
2018-12-24T21:38:45.018Z,19.63
2018-12-24T21:41:14.956Z,18.77
2018-12-24T21:43:44.819Z,18.77
2018-12-24T21:46:14.681Z,16.40
2018-12-24T21:48:44.537Z,15.63
2018-12-24T21:51:14.427Z,19.03
2018-12-24T21:53:44.285Z,16.77
2018-12-24T21:56:14.485Z,17.37
2018-12-24T21:58:44.321Z,13.30
2018-12-24T22:01:14.455Z,19.43
2018-12-24T22:03:44.315Z,14.83
2018-12-24T22:06:14.277Z,16.23
2018-12-24T22:08:44.262Z,17.40
2018-12-24T22:11:14.143Z,17.57
2018-12-24T22:13:44.321Z,17.07
2018-12-24T22:16:14.302Z,16.00
2018-12-24T22:18:44.163Z,14.50
2018-12-24T22:21:14.044Z,28.77
2018-12-24T22:23:43.926Z,19.20
2018-12-24T22:26:14.197Z,16.00
2018-12-24T22:28:44.056Z,14.13
2018-12-24T22:31:13.939Z,14.90
2018-12-24T22:33:43.798Z,19.30
2018-12-24T22:36:13.710Z,17.20
2018-12-24T22:38:43.844Z,13.20
2018-12-24T22:41:13.780Z,12.73
2018-12-24T22:43:43.704Z,18.33
2018-12-24T22:46:13.965Z,15.63
2018-12-24T22:48:43.820Z,14.70
2018-12-24T22:51:13.677Z,16.60
2018-12-24T22:53:43.520Z,15.60
2018-12-24T22:56:13.792Z,17.80
2018-12-24T22:58:43.636Z,19.80
2018-12-24T23:01:13.506Z,15.07
2018-12-24T23:03:43.410Z,16.27
2018-12-24T23:06:13.408Z,16.50
2018-12-24T23:08:43.259Z,21.83
2018-12-24T23:11:13.152Z,16.23
2018-12-24T23:13:43.157Z,17.93
2018-12-24T23:16:13.777Z,16.53
2018-12-24T23:18:49.336Z,14.27
2018-12-24T23:21:15.676Z,15.80
2018-12-24T23:23:45.513Z,18.13
2018-12-24T23:26:15.413Z,17.30
2018-12-24T23:28:45.298Z,15.77
2018-12-24T23:31:15.173Z,17.47
2018-12-24T23:33:45.397Z,20.70
2018-12-24T23:36:15.511Z,19.93
2018-12-24T23:38:45.433Z,17.03
2018-12-24T23:41:15.391Z,16.57
2018-12-24T23:43:45.707Z,14.80
2018-12-24T23:46:15.742Z,20.37
2018-12-24T23:48:48.119Z,15.20
2018-12-24T23:51:18.128Z,15.53
2018-12-24T23:53:48.073Z,16.70
2018-12-24T23:56:17.928Z,13.90
2018-12-24T23:58:47.880Z,15.27
